KSIY/SIY METAR and TAF weather

Enter ICAO airport designator
Station Type Date Time Source
KSIY METAR 2019/06/17 03:53 UTC NOAA

KSIY 170353Z AUTO 35016KT 10SM CLR 24/05 A2994 RMK AO2 SLP125 T02440050 $


Station Type Date Time Source
KSIY Decoded METAR 2019/06/17 03:53 UTC NOAA

MONTAGUE SISKIYOU COUNTY, CA, United States (KSIY) 41-46N 122-28W
Jun 16, 2019 - 11:53 PM EDT / 2019.06.17 0353 UTC
Wind: from the N (350 degrees) at 18 MPH (16 KT):0
Visibility: 10 mile(s):0
Sky conditions: clear
Temperature: 75.9 F (24.4 C)
Dew Point: 41.0 F (5.0 C)
Relative Humidity: 28%
Pressure (altimeter): 29.94 in. Hg (1013 hPa)
ob: KSIY 170353Z AUTO 35016KT 10SM CLR 24/05 A2994 RMK AO2 SLP125 T02440050
cycle: 4

Station Type Date Time Source
KSIY TAF UTC NOAA

Error!

Example: see airport list